Weather at Gibraltar Airport

Public forecast

Using degrees Celsius for public forecast. Weather courtesy of forecast.io.

Current aviation weather report (METAR) for Gibraltar Airport

Retrieved 2020/10/30 00:50 UTC (25 minutes ago):

LXGB 300050Z AUTO 10013KT 9999 // NCD 18/12 Q1024

Aviation forecast (TAF) for Gibraltar Airport

Forecast is more than 12 hours old.

Retrieved 2020/07/15 18:37 UTC (4 months ago):

TAF LXGB 150530Z 1418/1523 CNL